createdAt,value
2022-08-05T00:00:50.527Z,0.00
2022-08-05T00:01:50.027Z,0.00
2022-08-05T00:02:51.669Z,0.00
2022-08-05T00:03:49.980Z,0.00
2022-08-05T00:04:55.075Z,0.00
2022-08-05T00:06:04.601Z,0.00
2022-08-05T00:06:51.713Z,0.00
2022-08-05T00:08:00.094Z,0.00
2022-08-05T00:08:50.909Z,0.00
2022-08-05T00:09:49.897Z,0.00
2022-08-05T00:10:49.873Z,0.00
2022-08-05T00:11:56.125Z,0.00
2022-08-05T00:12:56.404Z,0.00
2022-08-05T00:13:53.261Z,0.00
2022-08-05T00:14:51.874Z,0.00
2022-08-05T00:15:56.349Z,0.00
2022-08-05T00:16:52.995Z,0.00
2022-08-05T00:17:49.798Z,0.00
2022-08-05T00:18:49.799Z,0.00
2022-08-05T00:20:02.217Z,0.00
2022-08-05T00:20:50.805Z,0.00
2022-08-05T00:21:49.759Z,0.00
2022-08-05T00:22:57.466Z,0.00
2022-08-05T00:23:53.759Z,0.00
2022-08-05T00:24:55.030Z,0.00
2022-08-05T00:25:49.705Z,0.00
2022-08-05T00:26:51.675Z,0.00
2022-08-05T00:27:49.695Z,0.00
2022-08-05T00:28:49.680Z,0.00
2022-08-05T00:29:49.683Z,0.00
2022-08-05T00:30:52.151Z,0.00
2022-08-05T00:32:10.632Z,0.00
2022-08-05T00:32:50.625Z,0.00
2022-08-05T00:34:55.263Z,0.00
2022-08-05T00:35:04.036Z,0.00
2022-08-05T00:36:16.109Z,0.00
2022-08-05T00:37:11.168Z,0.00
2022-08-05T00:37:52.805Z,0.00
2022-08-05T00:38:49.562Z,0.00
2022-08-05T00:39:57.868Z,0.00
2022-08-05T00:40:53.150Z,0.00
2022-08-05T00:41:55.628Z,0.00
2022-08-05T00:42:50.529Z,0.00
2022-08-05T00:43:50.009Z,0.00
2022-08-05T00:44:49.529Z,0.00
2022-08-05T00:45:49.488Z,0.00
2022-08-05T00:46:53.992Z,0.00
2022-08-05T00:47:56.434Z,0.00
2022-08-05T00:48:50.380Z,0.00
2022-08-05T00:49:51.747Z,0.00
2022-08-05T00:50:49.427Z,0.00
2022-08-05T00:51:50.459Z,0.00
2022-08-05T00:52:49.412Z,0.00
2022-08-05T00:54:02.601Z,0.00
2022-08-05T00:54:50.400Z,0.00
2022-08-05T00:55:49.389Z,0.00
2022-08-05T00:56:51.407Z,0.00
2022-08-05T00:57:58.356Z,0.00
2022-08-05T00:58:50.339Z,0.00
2022-08-05T00:59:49.339Z,0.00
2022-08-05T01:00:50.255Z,0.00
2022-08-05T01:01:49.451Z,0.00
2022-08-05T01:02:50.146Z,0.00
2022-08-05T01:03:49.931Z,0.00
2022-08-05T01:04:50.361Z,0.00
2022-08-05T01:05:49.269Z,0.00
2022-08-05T01:06:49.282Z,0.00
2022-08-05T01:08:30.646Z,0.00
2022-08-05T01:08:50.228Z,0.00
2022-08-05T01:09:55.552Z,0.00
2022-08-05T01:10:52.420Z,0.00
2022-08-05T01:11:49.205Z,0.00
2022-08-05T01:13:12.808Z,0.00
2022-08-05T01:13:59.174Z,0.00
2022-08-05T01:14:50.176Z,0.00
2022-08-05T01:15:49.150Z,0.00
2022-08-05T01:16:49.160Z,0.00
2022-08-05T01:17:53.776Z,0.00
2022-08-05T01:18:56.149Z,0.00
2022-08-05T01:20:00.962Z,0.00
2022-08-05T01:20:50.096Z,0.00
2022-08-05T01:21:50.655Z,0.00
2022-08-05T01:22:49.081Z,0.00
2022-08-05T01:23:52.999Z,0.00
2022-08-05T01:24:49.050Z,0.00
2022-08-05T01:25:53.233Z,0.00
2022-08-05T01:26:49.104Z,0.00
2022-08-05T01:27:55.672Z,0.00
2022-08-05T01:28:50.034Z,0.00
2022-08-05T01:29:48.999Z,0.00
2022-08-05T01:30:50.652Z,0.00
2022-08-05T01:31:49.988Z,0.00
2022-08-05T01:32:48.981Z,0.00
2022-08-05T01:33:53.699Z,0.00
2022-08-05T01:34:49.947Z,0.00
2022-08-05T01:35:51.111Z,0.00
2022-08-05T01:36:48.924Z,0.00
2022-08-05T01:37:48.920Z,0.00
2022-08-05T01:38:49.915Z,0.00
2022-08-05T01:39:48.958Z,0.00
2022-08-05T01:40:48.886Z,0.00
2022-08-05T01:41:48.865Z,0.00
2022-08-05T01:42:48.878Z,0.00
2022-08-05T01:43:48.942Z,0.00
2022-08-05T01:44:54.149Z,0.00
2022-08-05T01:45:56.308Z,0.00
2022-08-05T01:46:49.813Z,0.00
2022-08-05T01:47:48.812Z,0.00
2022-08-05T01:48:50.051Z,0.00
2022-08-05T01:50:02.159Z,0.00
2022-08-05T01:50:51.340Z,0.00
2022-08-05T01:51:51.763Z,0.00
2022-08-05T01:52:49.646Z,0.00
2022-08-05T01:53:58.004Z,0.00
2022-08-05T01:54:52.714Z,0.00
2022-08-05T01:55:48.704Z,0.00
2022-08-05T01:58:11.651Z,0.00
2022-08-05T01:58:12.660Z,0.00
2022-08-05T01:58:50.137Z,0.00
2022-08-05T01:59:48.689Z,0.00
2022-08-05T02:00:48.654Z,0.00
2022-08-05T02:01:48.678Z,0.00
2022-08-05T02:02:54.415Z,0.00
2022-08-05T02:03:49.625Z,0.00
2022-08-05T02:04:49.555Z,0.00
2022-08-05T02:05:48.600Z,0.00
2022-08-05T02:06:48.588Z,0.00
2022-08-05T02:07:59.903Z,0.00
2022-08-05T02:08:58.576Z,0.00
2022-08-05T02:09:49.592Z,0.00
2022-08-05T02:10:48.547Z,0.00
2022-08-05T02:11:52.302Z,0.00
2022-08-05T02:12:51.015Z,0.00
2022-08-05T02:13:53.413Z,0.00
2022-08-05T02:14:48.499Z,0.00
2022-08-05T02:15:48.494Z,0.00
2022-08-05T02:16:53.144Z,0.00
2022-08-05T02:18:32.992Z,0.00
2022-08-05T02:18:49.456Z,0.00
2022-08-05T02:19:48.441Z,0.00
2022-08-05T02:20:48.450Z,0.00
2022-08-05T02:21:49.239Z,0.00
2022-08-05T02:22:48.423Z,0.00
2022-08-05T02:23:48.604Z,0.00
2022-08-05T02:24:51.452Z,0.00
2022-08-05T02:25:49.025Z,0.00
2022-08-05T02:26:54.002Z,0.00
2022-08-05T02:27:57.943Z,0.00
2022-08-05T02:28:48.350Z,0.00
2022-08-05T02:29:58.830Z,0.00
2022-08-05T02:30:54.093Z,0.00
2022-08-05T02:31:49.315Z,0.00
2022-08-05T02:32:48.308Z,0.00
2022-08-05T02:33:48.404Z,0.00
2022-08-05T02:34:54.969Z,0.00
2022-08-05T02:35:56.217Z,0.00
2022-08-05T02:36:49.263Z,0.00
2022-08-05T02:37:54.154Z,0.00
2022-08-05T02:38:53.356Z,0.00
2022-08-05T02:39:51.494Z,0.00
2022-08-05T02:40:48.242Z,0.00
2022-08-05T02:42:00.940Z,0.00
2022-08-05T02:42:52.656Z,0.00
2022-08-05T02:44:06.615Z,0.00
2022-08-05T02:44:49.185Z,0.00
2022-08-05T02:45:52.164Z,0.00
2022-08-05T02:46:58.780Z,0.00
2022-08-05T02:48:07.476Z,0.00
2022-08-05T02:48:49.126Z,0.00
2022-08-05T02:49:48.118Z,0.00
2022-08-05T02:50:48.446Z,0.00
2022-08-05T02:52:02.944Z,0.00
2022-08-05T02:52:49.080Z,0.00
2022-08-05T02:53:48.066Z,0.00
2022-08-05T02:54:52.194Z,0.00
2022-08-05T02:55:54.168Z,0.00
2022-08-05T02:56:49.073Z,0.00
2022-08-05T02:58:11.605Z,0.00
2022-08-05T02:58:51.658Z,0.00
2022-08-05T02:59:50.614Z,0.00
2022-08-05T03:00:47.993Z,0.00
2022-08-05T03:01:48.032Z,0.00
2022-08-05T03:02:47.992Z,0.00
2022-08-05T03:04:02.907Z,0.00
2022-08-05T03:04:48.947Z,0.00
2022-08-05T03:06:54.000Z,0.00
2022-08-05T03:06:55.330Z,0.00
2022-08-05T03:08:06.660Z,0.00
2022-08-05T03:08:48.907Z,0.00
2022-08-05T03:09:51.653Z,0.00
2022-08-05T03:11:02.332Z,0.00
2022-08-05T03:11:57.170Z,0.00
2022-08-05T03:12:48.880Z,0.00
2022-08-05T03:13:51.581Z,0.00
2022-08-05T03:14:48.837Z,0.00
2022-08-05T03:15:47.833Z,0.00
2022-08-05T03:16:47.814Z,0.00
2022-08-05T03:17:47.814Z,0.00
2022-08-05T03:18:47.792Z,0.00
2022-08-05T03:19:47.790Z,0.00
2022-08-05T03:20:48.964Z,0.00
2022-08-05T03:21:48.705Z,0.00
2022-08-05T03:22:49.998Z,0.00
2022-08-05T03:23:47.762Z,0.00
2022-08-05T03:24:50.764Z,0.00
2022-08-05T03:26:30.164Z,0.00
2022-08-05T03:26:49.305Z,0.00
2022-08-05T03:27:59.276Z,0.00
2022-08-05T03:28:48.699Z,0.00
2022-08-05T03:30:08.445Z,0.00
2022-08-05T03:30:48.671Z,0.00
2022-08-05T03:31:56.759Z,0.00
2022-08-05T03:32:47.643Z,0.00
2022-08-05T03:33:52.717Z,0.00
2022-08-05T03:34:51.055Z,0.00
2022-08-05T03:35:47.618Z,0.00
2022-08-05T03:36:47.603Z,0.00
2022-08-05T03:37:47.619Z,0.00
2022-08-05T03:38:53.450Z,0.00
2022-08-05T03:39:59.433Z,0.00
2022-08-05T03:40:48.949Z,0.00
2022-08-05T03:41:47.557Z,0.00
2022-08-05T03:42:52.110Z,0.00
2022-08-05T03:44:08.461Z,0.00
2022-08-05T03:44:48.520Z,0.00
2022-08-05T03:45:58.289Z,0.00
2022-08-05T03:46:48.492Z,0.00
2022-08-05T03:47:47.482Z,0.00
2022-08-05T03:48:47.487Z,0.00
2022-08-05T03:49:51.566Z,0.00
2022-08-05T03:50:47.455Z,0.00
2022-08-05T03:52:38.562Z,0.00
2022-08-05T03:55:34.301Z,0.00
2022-08-05T03:55:50.442Z,0.00
2022-08-05T03:55:51.989Z,0.00
2022-08-05T03:56:05.949Z,0.00
2022-08-05T03:56:49.888Z,0.00
2022-08-05T03:57:47.615Z,0.00
2022-08-05T03:58:47.356Z,0.00
2022-08-05T03:59:54.928Z,0.00
2022-08-05T04:00:51.388Z,0.00
2022-08-05T04:01:47.421Z,0.00
2022-08-05T04:02:52.100Z,0.00
2022-08-05T04:04:09.781Z,0.00
2022-08-05T04:04:48.299Z,0.00
2022-08-05T04:05:47.293Z,0.00
2022-08-05T04:06:47.778Z,0.00
2022-08-05T04:07:57.629Z,0.00
2022-08-05T04:08:48.587Z,0.00
2022-08-05T04:09:53.100Z,0.00
2022-08-05T04:10:48.224Z,0.00
2022-08-05T04:11:50.707Z,0.00
2022-08-05T04:12:48.216Z,0.00
2022-08-05T04:13:50.611Z,0.00
2022-08-05T04:14:48.205Z,0.00
2022-08-05T04:16:03.073Z,0.00
2022-08-05T04:16:48.162Z,0.00
2022-08-05T04:17:57.181Z,0.00
2022-08-05T04:18:48.132Z,0.00
2022-08-05T04:19:54.295Z,0.00
2022-08-05T04:20:48.125Z,0.00
2022-08-05T04:22:09.916Z,0.00
2022-08-05T04:22:48.091Z,0.00
2022-08-05T04:24:00.267Z,0.00
2022-08-05T04:24:52.320Z,0.00
2022-08-05T04:25:57.957Z,0.00
2022-08-05T04:26:48.045Z,0.00
2022-08-05T04:27:58.115Z,0.00
2022-08-05T04:28:51.336Z,0.00
2022-08-05T04:29:47.021Z,0.00
2022-08-05T04:30:47.009Z,0.00
2022-08-05T04:31:48.272Z,0.00
2022-08-05T04:32:46.975Z,0.00
2022-08-05T04:34:17.482Z,0.00
2022-08-05T04:34:47.958Z,0.00
2022-08-05T04:36:09.492Z,0.00
2022-08-05T04:36:49.706Z,0.00
2022-08-05T04:38:00.870Z,0.00
2022-08-05T04:38:51.085Z,0.00
2022-08-05T04:39:46.981Z,0.00
2022-08-05T04:40:47.902Z,0.00
2022-08-05T04:41:48.285Z,0.00
2022-08-05T04:42:46.882Z,0.00
2022-08-05T04:43:52.141Z,0.00
2022-08-05T04:44:46.845Z,0.00
2022-08-05T04:45:48.310Z,0.00
2022-08-05T04:46:47.032Z,0.00
2022-08-05T04:47:47.274Z,0.00
2022-08-05T04:48:46.822Z,0.00
2022-08-05T04:50:02.801Z,0.00
2022-08-05T04:51:03.774Z,0.00
2022-08-05T04:51:47.769Z,0.00
2022-08-05T04:52:46.773Z,0.00
2022-08-05T04:53:46.749Z,0.00
2022-08-05T04:54:46.737Z,0.00
2022-08-05T04:56:00.098Z,0.00
2022-08-05T04:56:47.719Z,0.00
2022-08-05T04:57:47.989Z,0.00
2022-08-05T04:58:46.689Z,0.00
2022-08-05T04:59:47.947Z,0.00
2022-08-05T05:00:46.707Z,0.00
2022-08-05T05:02:35.012Z,0.00
2022-08-05T05:02:47.757Z,0.00
2022-08-05T05:03:46.662Z,0.00
2022-08-05T05:04:47.882Z,0.00
2022-08-05T05:06:39.153Z,0.00
2022-08-05T05:06:51.848Z,0.00
2022-08-05T05:07:56.039Z,0.00
2022-08-05T05:08:50.135Z,0.00
2022-08-05T05:09:46.593Z,0.00
2022-08-05T05:10:55.739Z,0.00
2022-08-05T05:11:55.431Z,0.00
2022-08-05T05:12:47.553Z,0.00
2022-08-05T05:13:46.565Z,0.00
2022-08-05T05:14:50.802Z,0.00
2022-08-05T05:15:57.107Z,0.00
2022-08-05T05:16:47.492Z,0.00
2022-08-05T05:17:55.738Z,0.00
2022-08-05T05:19:09.041Z,0.00
2022-08-05T05:19:47.636Z,0.00
2022-08-05T05:20:46.451Z,0.00
2022-08-05T05:21:46.559Z,0.00
2022-08-05T05:22:46.443Z,0.00
2022-08-05T05:24:03.686Z,0.00
2022-08-05T05:24:56.987Z,0.00
2022-08-05T05:25:47.840Z,0.00
2022-08-05T05:26:46.556Z,0.00
2022-08-05T05:27:53.761Z,0.00
2022-08-05T05:28:47.357Z,0.00
2022-08-05T05:30:05.015Z,0.00
2022-08-05T05:30:49.584Z,0.00
2022-08-05T05:31:46.682Z,0.00
2022-08-05T05:32:46.384Z,0.00
2022-08-05T05:33:59.294Z,0.00
2022-08-05T05:34:47.291Z,0.00
2022-08-05T05:35:46.287Z,0.00
2022-08-05T05:36:47.173Z,0.00
2022-08-05T05:37:59.857Z,0.00
2022-08-05T05:38:47.280Z,0.00
2022-08-05T05:39:46.321Z,0.00
2022-08-05T05:40:49.933Z,0.00
2022-08-05T05:41:54.527Z,0.00
2022-08-05T05:42:47.153Z,0.00
2022-08-05T05:43:58.563Z,0.00
2022-08-05T05:44:47.199Z,0.00
2022-08-05T05:45:48.157Z,0.00
2022-08-05T05:46:46.189Z,0.00
2022-08-05T05:48:07.007Z,0.00
2022-08-05T05:48:48.227Z,0.00
2022-08-05T05:49:46.144Z,0.00
2022-08-05T05:50:47.168Z,0.00
2022-08-05T05:51:50.038Z,0.00
2022-08-05T05:52:46.603Z,0.00
2022-08-05T05:53:57.522Z,0.00
2022-08-05T05:54:50.197Z,0.00
2022-08-05T05:55:52.428Z,0.00
2022-08-05T05:56:47.380Z,0.00
2022-08-05T05:57:52.146Z,0.00
2022-08-05T05:58:47.055Z,0.00
2022-08-05T05:59:46.019Z,0.00
2022-08-05T06:00:46.009Z,0.00
2022-08-05T06:01:57.169Z,0.00
2022-08-05T06:02:46.982Z,0.00
2022-08-05T06:04:00.815Z,0.00
2022-08-05T06:04:49.102Z,0.00
2022-08-05T06:05:45.967Z,0.00
2022-08-05T06:06:47.744Z,0.00
2022-08-05T06:08:01.486Z,0.00
2022-08-05T06:08:49.237Z,0.00
2022-08-05T06:10:00.124Z,0.00
2022-08-05T06:10:52.352Z,0.00
2022-08-05T06:12:01.191Z,0.00
2022-08-05T06:12:46.870Z,0.00
2022-08-05T06:13:54.249Z,0.00
2022-08-05T06:14:45.846Z,0.00
2022-08-05T06:16:30.748Z,0.00
2022-08-05T06:16:46.840Z,0.00
2022-08-05T06:17:52.652Z,0.00
2022-08-05T06:18:45.802Z,0.00
2022-08-05T06:19:45.825Z,0.00
2022-08-05T06:20:47.769Z,0.00
2022-08-05T06:21:49.702Z,0.00
2022-08-05T06:22:46.278Z,0.00
2022-08-05T06:23:45.750Z,0.00
2022-08-05T06:24:48.219Z,0.00
2022-08-05T06:26:12.181Z,0.00
2022-08-05T06:26:52.374Z,0.00
2022-08-05T06:28:11.369Z,0.00
2022-08-05T06:28:46.703Z,0.00
2022-08-05T06:29:53.379Z,0.00
2022-08-05T06:30:46.689Z,0.00
2022-08-05T06:31:53.520Z,0.00
2022-08-05T06:32:46.739Z,0.00
2022-08-05T06:34:06.817Z,0.00
2022-08-05T06:34:47.039Z,0.00
2022-08-05T06:36:07.958Z,0.00
2022-08-05T06:36:57.702Z,0.00
2022-08-05T06:37:58.038Z,0.00
2022-08-05T06:38:47.083Z,0.00
2022-08-05T06:39:45.707Z,0.00
2022-08-05T06:40:45.559Z,0.00
2022-08-05T06:41:45.561Z,0.00
2022-08-05T06:42:45.591Z,0.00
2022-08-05T06:43:58.457Z,0.00
2022-08-05T06:44:46.538Z,0.00
2022-08-05T06:46:06.944Z,0.00
2022-08-05T06:46:46.506Z,0.00
2022-08-05T06:48:36.175Z,0.00
2022-08-05T06:48:56.298Z,0.00
2022-08-05T06:50:01.222Z,0.00
2022-08-05T06:50:46.458Z,0.00
2022-08-05T06:51:45.450Z,0.00
2022-08-05T06:52:45.428Z,0.00
2022-08-05T06:53:53.639Z,0.00
2022-08-05T06:54:46.423Z,0.00
2022-08-05T06:55:46.394Z,0.00
2022-08-05T06:56:54.641Z,0.00
2022-08-05T06:58:03.446Z,0.00
2022-08-05T06:58:46.723Z,0.00
2022-08-05T06:59:48.511Z,5.62
2022-08-05T07:00:46.378Z,5.62
2022-08-05T07:01:46.165Z,5.62
2022-08-05T07:02:45.315Z,5.62
2022-08-05T07:03:45.309Z,0.00
2022-08-05T07:04:45.311Z,0.00
2022-08-05T07:05:46.348Z,0.00
2022-08-05T07:06:45.272Z,0.00
2022-08-05T07:07:45.391Z,0.00
2022-08-05T07:08:47.478Z,0.00
2022-08-05T07:09:46.257Z,0.00
2022-08-05T07:10:52.518Z,0.00
2022-08-05T07:11:49.579Z,0.00
2022-08-05T07:12:49.093Z,0.00
2022-08-05T07:13:59.491Z,0.00
2022-08-05T07:14:46.188Z,0.00
2022-08-05T07:16:01.623Z,0.00
2022-08-05T07:18:02.424Z,0.00
2022-08-05T07:18:08.486Z,0.00
2022-08-05T07:18:47.729Z,0.00
2022-08-05T07:20:31.444Z,0.00
2022-08-05T07:20:46.114Z,0.00
2022-08-05T07:21:59.845Z,5.62
2022-08-05T07:22:46.090Z,5.62
2022-08-05T07:23:50.040Z,5.62
2022-08-05T07:24:52.509Z,5.62
2022-08-05T07:25:56.298Z,5.62
2022-08-05T07:26:46.179Z,5.62
2022-08-05T07:27:58.527Z,5.62
2022-08-05T07:28:46.031Z,5.62
2022-08-05T07:30:22.172Z,5.62
2022-08-05T07:30:50.292Z,5.62
2022-08-05T07:31:55.107Z,5.62
2022-08-05T07:32:45.997Z,5.62
2022-08-05T07:33:44.991Z,5.62
2022-08-05T07:34:44.960Z,5.62
2022-08-05T07:36:04.527Z,5.62
2022-08-05T07:36:45.947Z,5.62
2022-08-05T07:37:47.327Z,11.25
2022-08-05T07:38:44.949Z,11.25
2022-08-05T07:40:04.324Z,11.25
2022-08-05T07:40:45.968Z,11.25
2022-08-05T07:42:13.251Z,11.25
2022-08-05T07:42:45.882Z,11.25
2022-08-05T07:43:44.891Z,11.25
2022-08-05T07:44:46.300Z,5.62
2022-08-05T07:45:57.565Z,5.62
2022-08-05T07:46:45.974Z,5.62
2022-08-05T07:47:44.828Z,5.62
2022-08-05T07:49:02.776Z,5.62
2022-08-05T07:49:54.550Z,5.62
2022-08-05T07:50:45.780Z,5.62
2022-08-05T07:51:53.154Z,5.62
2022-08-05T07:52:45.758Z,5.62
2022-08-05T07:53:49.914Z,5.62
2022-08-05T07:54:47.576Z,5.62
2022-08-05T07:56:05.616Z,5.62
2022-08-05T07:57:02.579Z,11.25
2022-08-05T07:57:55.253Z,11.25
2022-08-05T07:58:57.363Z,11.25
2022-08-05T07:59:46.813Z,11.25
2022-08-05T08:00:44.705Z,16.88
2022-08-05T08:01:52.139Z,16.88
2022-08-05T08:03:14.834Z,16.88
2022-08-05T08:03:45.692Z,11.25
2022-08-05T08:04:44.936Z,11.25
2022-08-05T08:05:49.518Z,11.25
2022-08-05T08:06:45.629Z,11.25
2022-08-05T08:07:59.745Z,11.25
2022-08-05T08:08:45.646Z,11.25
2022-08-05T08:09:44.587Z,11.25
2022-08-05T08:10:44.559Z,11.25
2022-08-05T08:11:47.458Z,5.62
2022-08-05T08:12:49.530Z,5.62
2022-08-05T08:13:49.483Z,5.62
2022-08-05T08:14:46.745Z,5.62
2022-08-05T08:16:35.676Z,5.62
2022-08-05T08:16:51.123Z,5.62
2022-08-05T08:17:49.734Z,5.62
2022-08-05T08:18:50.176Z,5.62
2022-08-05T08:20:22.214Z,5.62
2022-08-05T08:21:02.939Z,11.25
2022-08-05T08:21:45.436Z,5.62
2022-08-05T08:22:44.538Z,5.62
2022-08-05T08:24:02.442Z,5.62
2022-08-05T08:24:51.405Z,5.62
2022-08-05T08:26:00.108Z,5.62
2022-08-05T08:26:45.382Z,5.62
2022-08-05T08:27:47.365Z,5.62
2022-08-05T08:29:02.168Z,5.62
2022-08-05T08:30:05.066Z,5.62
2022-08-05T08:30:47.808Z,5.62
2022-08-05T08:31:44.325Z,11.25
2022-08-05T08:32:44.320Z,11.25
2022-08-05T08:33:44.306Z,11.25
2022-08-05T08:34:44.299Z,11.25
2022-08-05T08:35:53.929Z,11.25
2022-08-05T08:36:47.584Z,11.25
2022-08-05T08:37:45.300Z,11.25
2022-08-05T08:38:53.077Z,11.25
2022-08-05T08:39:49.695Z,11.25
2022-08-05T08:40:50.507Z,16.88
2022-08-05T08:41:50.764Z,16.88
2022-08-05T08:42:50.446Z,16.88
2022-08-05T08:45:19.497Z,16.88
2022-08-05T08:45:19.740Z,16.88
2022-08-05T08:45:45.201Z,16.88
2022-08-05T08:46:44.174Z,16.88
2022-08-05T08:48:05.879Z,16.88
2022-08-05T08:49:07.764Z,16.88
2022-08-05T08:50:14.162Z,22.50
2022-08-05T08:51:03.115Z,22.50
2022-08-05T08:52:03.671Z,22.50
2022-08-05T08:52:47.431Z,16.88
2022-08-05T08:53:45.453Z,16.88
2022-08-05T08:54:44.084Z,16.88
2022-08-05T08:56:03.479Z,16.88
2022-08-05T08:56:47.748Z,22.50
2022-08-05T08:57:58.021Z,22.50
2022-08-05T08:58:47.912Z,22.50
2022-08-05T08:59:47.247Z,28.12
2022-08-05T09:00:44.492Z,28.12
2022-08-05T09:01:44.151Z,28.12
2022-08-05T09:02:44.993Z,28.12
2022-08-05T09:03:45.254Z,28.12
2022-08-05T09:04:58.154Z,28.12
2022-08-05T09:06:09.071Z,28.12
2022-08-05T09:06:44.973Z,28.12
2022-08-05T09:07:57.588Z,28.12
2022-08-05T09:08:44.918Z,28.12
2022-08-05T09:09:43.907Z,28.12
2022-08-05T09:10:43.907Z,28.12
2022-08-05T09:11:52.997Z,33.75
2022-08-05T09:12:44.873Z,33.75
2022-08-05T09:14:09.323Z,39.38
2022-08-05T09:14:56.989Z,39.38
2022-08-05T09:15:44.918Z,39.38
2022-08-05T09:16:48.778Z,39.38
2022-08-05T09:17:49.350Z,39.38
2022-08-05T09:18:43.915Z,39.38
2022-08-05T09:20:01.507Z,33.75
2022-08-05T09:20:44.798Z,28.12
2022-08-05T09:22:25.078Z,28.12
2022-08-05T09:22:51.899Z,33.75
2022-08-05T09:23:44.757Z,33.75
2022-08-05T09:24:43.751Z,33.75
2022-08-05T09:26:01.308Z,39.38
2022-08-05T09:26:44.749Z,33.75
2022-08-05T09:28:03.799Z,33.75
2022-08-05T09:28:44.710Z,33.75
2022-08-05T09:29:47.650Z,39.38
2022-08-05T09:30:43.679Z,39.38
2022-08-05T09:32:57.492Z,45.00
2022-08-05T09:33:57.097Z,50.62
2022-08-05T09:34:57.074Z,50.62
2022-08-05T09:35:57.070Z,56.25
2022-08-05T09:36:59.718Z,84.38
2022-08-05T09:38:17.720Z,67.50
2022-08-05T09:38:58.170Z,73.12
2022-08-05T09:39:57.106Z,78.75
2022-08-05T09:40:57.015Z,67.50
2022-08-05T09:41:56.992Z,67.50
2022-08-05T09:42:56.988Z,61.88
2022-08-05T09:43:56.991Z,56.25
2022-08-05T09:45:03.311Z,56.25
2022-08-05T09:46:06.298Z,50.62
2022-08-05T09:46:58.177Z,50.62
2022-08-05T09:47:57.544Z,50.62
2022-08-05T09:49:07.182Z,50.62
2022-08-05T09:50:02.372Z,45.00
2022-08-05T09:50:57.902Z,39.38
2022-08-05T09:51:56.887Z,39.38
2022-08-05T09:52:56.889Z,39.38
2022-08-05T09:53:59.331Z,39.38
2022-08-05T09:54:56.871Z,39.38
2022-08-05T09:56:03.923Z,45.00
2022-08-05T09:56:57.921Z,45.00
2022-08-05T09:57:58.425Z,45.00
2022-08-05T09:58:56.834Z,45.00
2022-08-05T09:59:56.796Z,45.00
2022-08-05T10:00:56.820Z,45.00
2022-08-05T10:01:57.759Z,45.00
2022-08-05T10:02:58.278Z,45.00
2022-08-05T10:03:59.485Z,45.00
2022-08-05T10:04:56.760Z,50.62
2022-08-05T10:05:56.735Z,50.62
2022-08-05T10:06:59.009Z,45.00
2022-08-05T10:08:10.648Z,39.38
2022-08-05T10:08:57.698Z,39.38
2022-08-05T10:10:13.823Z,39.38
2022-08-05T10:10:57.683Z,39.38
2022-08-05T10:11:56.662Z,45.00
2022-08-05T10:12:56.655Z,45.00
2022-08-05T10:13:56.643Z,50.62
2022-08-05T10:14:56.644Z,50.62
2022-08-05T10:15:56.629Z,50.62
2022-08-05T10:16:56.611Z,50.62
2022-08-05T10:17:57.677Z,50.62
2022-08-05T10:18:56.601Z,56.25
2022-08-05T10:20:03.753Z,56.25
2022-08-05T10:20:57.567Z,56.25
2022-08-05T10:21:56.558Z,56.25
2022-08-05T10:22:56.560Z,56.25
2022-08-05T10:24:00.401Z,56.25
2022-08-05T10:24:56.539Z,56.25
2022-08-05T10:25:56.523Z,67.50
2022-08-05T10:27:00.234Z,61.88
2022-08-05T10:28:16.818Z,84.38
2022-08-05T10:28:57.486Z,56.25
2022-08-05T10:30:06.358Z,56.25
2022-08-05T10:32:47.342Z,50.62
2022-08-05T10:32:54.586Z,45.00
2022-08-05T10:33:01.338Z,50.62
2022-08-05T10:33:57.432Z,50.62
2022-08-05T10:34:56.433Z,50.62
2022-08-05T10:35:59.781Z,56.25
2022-08-05T10:36:56.400Z,61.88
2022-08-05T10:37:56.390Z,61.88
2022-08-05T10:38:56.439Z,56.25
2022-08-05T10:39:59.385Z,56.25
2022-08-05T10:40:58.068Z,56.25
2022-08-05T10:42:00.728Z,56.25
2022-08-05T10:42:56.334Z,56.25
2022-08-05T10:43:56.310Z,61.88
2022-08-05T10:44:56.302Z,61.88
2022-08-05T10:45:56.319Z,61.88
2022-08-05T10:46:57.290Z,61.88
2022-08-05T10:48:31.695Z,61.88
2022-08-05T10:49:02.764Z,67.50
2022-08-05T10:50:32.065Z,67.50
2022-08-05T10:50:57.260Z,106.88
2022-08-05T10:51:59.914Z,112.50
2022-08-05T10:52:58.774Z,78.75
2022-08-05T10:53:56.203Z,73.12
2022-08-05T10:54:57.294Z,67.50
2022-08-05T10:56:05.508Z,56.25
2022-08-05T10:56:57.381Z,56.25
2022-08-05T10:57:56.154Z,56.25
2022-08-05T10:58:56.163Z,56.25
2022-08-05T11:00:04.098Z,56.25
2022-08-05T11:01:03.104Z,50.62
2022-08-05T11:02:04.642Z,50.62
2022-08-05T11:02:57.174Z,56.25
2022-08-05T11:03:57.119Z,56.25
2022-08-05T11:04:56.104Z,56.25
2022-08-05T11:05:56.074Z,56.25
2022-08-05T11:06:57.486Z,67.50
2022-08-05T11:08:01.761Z,56.25
2022-08-05T11:08:57.040Z,50.62
2022-08-05T11:10:03.934Z,45.00
2022-08-05T11:11:00.929Z,45.00
2022-08-05T11:11:57.013Z,39.38
2022-08-05T11:12:56.047Z,39.38
2022-08-05T11:13:58.199Z,39.38
2022-08-05T11:15:11.937Z,39.38
2022-08-05T11:16:01.279Z,39.38
2022-08-05T11:17:00.168Z,39.38
2022-08-05T11:18:03.828Z,45.00
2022-08-05T11:18:56.928Z,50.62
2022-08-05T11:20:16.575Z,50.62
2022-08-05T11:20:56.911Z,50.62
2022-08-05T11:21:55.898Z,50.62
2022-08-05T11:22:59.174Z,56.25
2022-08-05T11:24:05.409Z,67.50
2022-08-05T11:26:03.477Z,67.50
2022-08-05T11:26:04.789Z,73.12
2022-08-05T11:26:56.837Z,78.75
2022-08-05T11:28:00.654Z,73.12
2022-08-05T11:28:56.825Z,61.88
2022-08-05T11:29:55.808Z,78.75
2022-08-05T11:30:55.797Z,78.75
2022-08-05T11:32:00.413Z,84.38
2022-08-05T11:32:55.776Z,123.75
2022-08-05T11:33:55.779Z,123.75
2022-08-05T11:34:55.750Z,67.50
2022-08-05T11:36:08.053Z,61.88
2022-08-05T11:36:56.797Z,61.88
2022-08-05T11:38:30.467Z,61.88
2022-08-05T11:38:57.590Z,56.25
2022-08-05T11:40:02.872Z,50.62
2022-08-05T11:41:00.803Z,50.62
2022-08-05T11:42:02.219Z,50.62
2022-08-05T11:42:56.662Z,50.62
2022-08-05T11:44:06.292Z,56.25
2022-08-05T11:44:56.638Z,56.25
2022-08-05T11:46:16.137Z,61.88
2022-08-05T11:47:09.379Z,61.88
2022-08-05T11:47:56.609Z,73.12
2022-08-05T11:48:55.606Z,73.12
2022-08-05T11:49:55.611Z,73.12
2022-08-05T11:50:55.578Z,84.38
2022-08-05T11:51:55.566Z,61.88
2022-08-05T11:52:57.880Z,61.88
2022-08-05T11:53:56.193Z,61.88
2022-08-05T11:54:55.792Z,56.25
2022-08-05T11:55:55.521Z,50.62
2022-08-05T11:56:55.509Z,50.62
2022-08-05T11:58:10.356Z,45.00
2022-08-05T11:58:56.519Z,45.00
2022-08-05T11:59:55.506Z,39.38
2022-08-05T12:00:55.476Z,39.38
2022-08-05T12:01:55.461Z,39.38
2022-08-05T12:02:56.608Z,39.38
2022-08-05T12:03:55.584Z,39.38
2022-08-05T12:04:59.238Z,33.75
2022-08-05T12:05:55.406Z,33.75
2022-08-05T12:06:55.401Z,33.75
2022-08-05T12:08:03.381Z,33.75
2022-08-05T12:08:56.377Z,33.75
2022-08-05T12:09:55.368Z,33.75
2022-08-05T12:10:55.363Z,33.75
2022-08-05T12:11:55.353Z,33.75
2022-08-05T12:12:58.318Z,33.75
2022-08-05T12:13:55.327Z,33.75
2022-08-05T12:14:55.306Z,39.38
2022-08-05T12:15:55.965Z,73.12
2022-08-05T12:16:55.286Z,61.88
2022-08-05T12:18:03.287Z,73.12
2022-08-05T12:18:56.266Z,101.25
2022-08-05T12:20:26.158Z,50.62
2022-08-05T12:20:56.266Z,61.88
2022-08-05T12:21:55.231Z,101.25
2022-08-05T12:22:55.241Z,95.62
2022-08-05T12:23:55.213Z,50.62
2022-08-05T12:24:55.198Z,90.00
2022-08-05T12:25:56.650Z,61.88
2022-08-05T12:26:55.218Z,67.50
2022-08-05T12:27:55.167Z,106.88
2022-08-05T12:28:55.158Z,67.50
2022-08-05T12:29:56.969Z,101.25
2022-08-05T12:30:55.143Z,95.62
2022-08-05T12:31:55.352Z,101.25
2022-08-05T12:32:56.277Z,101.25
2022-08-05T12:33:55.103Z,101.25
2022-08-05T12:34:55.119Z,101.25
2022-08-05T12:35:55.130Z,101.25
2022-08-05T12:36:55.064Z,50.62
2022-08-05T12:37:55.579Z,56.25
2022-08-05T12:38:55.066Z,56.25
2022-08-05T12:39:55.097Z,56.25
2022-08-05T12:40:56.037Z,56.25
2022-08-05T12:41:58.118Z,50.62
2022-08-05T12:42:54.997Z,50.62
2022-08-05T12:43:55.005Z,50.62
2022-08-05T12:44:54.975Z,56.25
2022-08-05T12:45:54.972Z,56.25
2022-08-05T12:46:54.968Z,56.25
2022-08-05T12:48:16.986Z,56.25
2022-08-05T12:48:55.930Z,56.25
2022-08-05T12:50:04.165Z,61.88
2022-08-05T12:50:55.923Z,67.50
2022-08-05T12:52:12.422Z,67.50
2022-08-05T12:52:55.886Z,84.38
2022-08-05T12:53:55.871Z,101.25
2022-08-05T12:54:54.877Z,90.00
2022-08-05T12:55:54.853Z,95.62
2022-08-05T12:56:54.893Z,56.25
2022-08-05T12:58:49.830Z,56.25
2022-08-05T12:58:59.699Z,95.62
2022-08-05T13:01:56.851Z,90.00
2022-08-05T13:01:59.712Z,95.62
2022-08-05T13:02:00.765Z,56.25
2022-08-05T13:02:55.881Z,45.00
2022-08-05T13:03:54.773Z,45.00
2022-08-05T13:04:54.992Z,45.00
2022-08-05T13:05:54.745Z,45.00
2022-08-05T13:06:54.768Z,45.00
2022-08-05T13:07:57.380Z,45.00
2022-08-05T13:08:54.712Z,45.00